Industry, Kansas
Current Conditions -  °F | °C
As of 1:58 PM on Sunday 23 Nov 2014 (Local Time) from KFRI Reporting Station
Overcast Overcast  
Wind Chill: 41°   Ceiling: 2200
Heat Index: 47°   Visibility: 10mi
Dew Point: 41°   Wind: 18mph
Humidity: 79%   Direction: 10°N
Pressure: 29.44"   Gusts: 37mph
Location:  39.0421°N, 97.1702°W
Report Text: KFRI 231958Z AUTO 01016G32KT 10SM BKN022 OVC032 09/05 A2944 RMK AO2 PK WND 35032/49 RAB1939E1943DZB1904E1939 SLP967 P0000 T00860051
Loading
Personal Weather Stations






























Interactive Weather Map New forecast layout! Learn more

10-Day Weather Forecast

Advertisements
Track Severe Weather on mobile